Date,TemperatureHighF,TemperatureAvgF,TemperatureLowF,DewpointHighF,DewpointAvgF,DewpointLowF,HumidityHigh,HumidityAvg,HumidityLow,PressureMaxIn,PressureMinIn,WindSpeedMaxMPH,WindSpeedAvgMPH,GustSpeedMaxMPH,PrecipitationSumIn
2014-1-1,26.9,21.7,5.3,23.2,13.2,-1.4,93,70,50,30.55,30.26,23,7,23,0.04
2014-1-2,20.6,8.3,-2.3,7.1,0.8,-5.7,87,72,53,30.81,30.55,11,1,11,0.00
2014-1-3,32.4,16.6,-3.4,16.8,3.3,-10.2,83,58,28,30.75,30.13,24,4,24,0.04
2014-1-4,28.7,17.0,1.8,20.8,9.7,-4.6,91,75,41,30.18,29.77,19,7,22,0.01
2014-1-5,7.7,3.7,-3.7,-0.9,-4.8,-9.1,85,68,54,30.76,30.17,28,8,28,1.31
2014-1-6,13.1,0.0,-13.4,-1.0,-8.6,-18.9,86,67,45,31.05,30.75,16,2,16,0.00
2014-1-7,15.9,6.8,-5.2,13.7,2.6,-9.6,92,83,70,31.01,30.55,7,1,7,0.00
2014-1-8,23.6,19.4,12.7,20.4,16.8,10.3,100,89,81,30.55,30.27,9,1,9,0.00
2014-1-9,34.4,19.4,12.3,21.5,17.1,9.9,93,90,81,30.27,29.98,45,2,45,0.00
2014-1-10,34.4,16.5,10.7,18.5,13.0,3.2,92,86,64,30.42,29.98,29,7,29,0.00
2014-1-11,26.7,18.5,11.7,19.0,14.2,7.2,92,83,71,30.53,30.19,15,3,15,0.00
2014-1-12,32.1,20.3,13.6,27.2,14.4,4.4,100,78,61,30.33,29.93,32,8,32,1.58
2014-1-13,24.7,17.2,11.1,14.3,9.9,4.5,85,73,61,30.67,30.33,24,7,24,0.08
2014-1-14,25.1,21.3,9.7,15.9,12.6,4.0,81,69,58,30.66,30.53,27,10,27,2.15
2014-1-15,35.3,19.1,1.4,16.1,7.1,-2.8,90,63,38,30.77,30.56,30,8,30,0.58
2014-1-16,32.4,19.6,2.8,10.4,5.2,-3.4,84,55,32,30.62,30.45,28,8,28,2.48
2014-1-17,24.9,12.0,-0.2,11.1,4.1,-4.5,87,71,53,30.68,30.56,14,1,14,0.00
2014-1-18,27.0,12.0,0.8,12.6,4.3,-6.0,86,72,48,30.82,30.67,13,1,13,0.00
2014-1-19,22.2,10.1,-1.0,10.6,2.3,-8.2,89,70,52,30.87,30.71,14,1,14,0.00
2014-1-20,35.1,13.6,0.3,15.3,4.4,-4.8,89,69,38,30.93,30.72,14,2,14,0.00
2014-1-21,20.3,7.1,-6.9,7.7,-2.4,-15.0,80,65,48,30.99,30.83,11,1,11,0.00
2014-1-22,19.4,5.8,-4.5,3.3,-5.7,-13.5,71,59,37,30.85,30.51,11,1,11,0.00
2014-1-23,22.7,10.2,-0.7,11.0,0.8,-8.1,80,66,45,30.91,30.53,12,1,12,0.00
2014-1-24,19.1,6.3,-7.7,6.3,-3.1,-15.4,80,65,50,31.08,30.90,13,1,13,0.00
2014-1-25,26.6,12.7,0.7,13.2,3.4,-6.8,80,66,49,31.03,30.54,12,1,12,0.00
2014-1-26,35.9,17.1,3.0,19.8,8.1,-0.8,88,69,44,30.54,30.29,18,4,18,0.00
2014-1-27,32.2,17.9,2.4,21.2,11.5,-1.5,94,77,51,30.31,30.07,33,7,33,0.26
2014-1-28,21.5,10.5,-0.8,12.8,-8.1,-16.7,84,43,21,30.63,30.18,29,7,29,0.11
2014-1-29,27.2,13.3,-1.2,22.1,5.7,-12.2,94,72,51,30.68,30.18,11,1,11,0.00
2014-1-30,32.1,28.3,22.7,29.4,26.9,21.2,96,94,86,30.18,29.59,19,3,19,0.00
2014-1-31,29.7,23.0,13.4,28.0,21.4,11.3,95,93,88,29.79,29.57,22,3,22,0.00
2014-2-1,22.7,11.2,-4.5,19.6,8.5,-8.3,92,89,83,30.35,29.79,14,4,14,0.00
2014-2-2,12.6,-1.5,-14.3,6.2,-6.0,-18.5,87,81,71,30.62,30.35,12,2,12,0.00
2014-2-3,26.0,10.2,-1.4,16.9,6.3,-5.1,91,84,65,30.61,30.11,6,0,6,0.00
2014-2-4,20.0,11.3,3.3,14.7,7.7,0.1,91,85,67,30.29,30.01,19,2,19,0.00
2014-2-5,22.2,8.0,1.2,7.2,1.7,-2.5,88,76,44,30.44,30.28,12,2,12,0.00
2014-2-6,26.6,12.3,3.5,14.6,7.7,0.3,91,82,56,30.38,30.19,11,1,11,0.00
2014-2-7,24.8,18.9,12.8,19.6,14.8,10.4,91,84,65,30.19,30.07,40,5,40,0.00
2014-2-8,26.8,23.6,19.2,25.5,21.9,17.2,95,93,90,30.26,30.12,15,3,15,0.00
2014-2-9,32.7,29.2,26.0,30.4,27.8,24.8,96,95,89,30.20,30.00,18,3,18,0.00
2014-2-10,35.6,23.4,7.7,31.7,19.4,2.0,100,85,62,30.27,29.98,23,5,23,0.00
2014-2-11,20.2,7.2,-7.5,13.9,2.6,-12.2,89,81,67,30.70,30.27,12,2,12,0.00
2014-2-12,29.0,14.7,-3.0,23.5,10.3,-7.0,93,83,61,30.75,30.47,12,1,12,0.00
2014-2-13,38.4,31.2,24.0,28.7,25.5,22.3,94,80,58,30.48,30.02,40,7,40,0.00
2014-2-14,37.0,32.6,28.4,29.9,25.8,21.0,91,76,66,30.15,30.02,39,8,39,0.10
2014-2-15,43.2,35.3,22.6,28.6,24.8,18.4,89,67,40,30.16,30.09,32,5,32,0.09
2014-2-16,39.4,29.1,16.6,29.4,19.4,4.8,93,69,36,30.25,29.98,47,7,47,1.25
2014-2-17,27.7,18.4,3.4,15.7,6.6,-4.9,74,60,41,30.48,30.25,21,3,21,0.00
2014-2-18,41.2,22.7,6.8,19.0,8.6,-1.7,78,57,23,30.45,30.25,25,4,25,0.09
2014-2-19,38.6,23.7,14.4,26.3,16.0,7.8,93,74,39,30.25,29.69,35,6,35,0.59
2014-2-20,17.8,9.7,-4.5,13.2,1.6,-9.1,89,70,44,30.51,29.88,31,10,31,1.32
2014-2-21,28.5,14.6,-4.5,14.6,4.8,-8.7,88,67,40,30.57,30.29,27,3,27,0.09
2014-2-22,30.8,22.4,6.5,16.8,8.7,-0.4,78,56,42,30.30,30.08,37,7,37,1.03
2014-2-23,32.0,21.3,8.2,17.9,9.6,0.2,74,61,48,30.33,30.17,17,3,17,0.00
2014-2-24,40.9,24.5,9.2,20.0,11.1,2.1,79,58,33,30.40,30.29,22,4,22,0.00
2014-2-25,43.0,27.2,10.5,22.2,14.1,3.8,80,60,33,30.32,30.11,25,4,25,0.02
2014-2-26,39.2,31.6,19.6,24.6,19.5,13.0,78,62,41,30.11,29.94,18,6,18,0.06
2014-2-27,31.5,24.0,14.3,28.1,21.1,9.8,95,89,76,30.02,29.78,18,2,18,0.01
2014-2-28,34.9,27.8,24.2,25.0,22.4,15.6,95,82,47,30.03,29.88,28,4,31,0.00
2014-3-1,33.8,28.0,24.6,28.9,26.0,23.4,96,92,74,29.97,29.76,36,5,36,0.00
2014-3-2,34.7,26.7,20.7,25.9,21.5,16.9,95,82,54,30.24,29.93,22,3,22,0.00
2014-3-3,36.1,23.5,14.0,23.0,17.6,11.1,92,79,54,30.33,30.22,14,3,14,0.02
2014-3-4,31.1,21.3,7.9,27.0,17.8,5.0,94,86,65,30.30,30.11,14,1,14,0.00
2014-3-5,29.2,19.1,3.8,20.1,13.4,-1.6,92,78,65,30.55,30.25,13,3,13,0.00
2014-3-6,32.5,20.3,5.2,25.5,13.2,1.7,92,75,49,30.58,30.24,9,1,10,0.00
2014-3-7,31.4,26.7,22.1,28.6,22.9,17.0,95,86,67,30.24,29.95,24,4,24,0.00
2014-3-8,34.6,21.4,8.0,19.9,13.0,4.7,91,71,44,30.68,30.16,16,3,16,0.00
2014-3-9,30.4,16.8,1.2,18.1,8.8,-5.5,84,71,55,30.79,30.62,8,1,10,0.00
2014-3-10,37.6,23.9,9.4,20.2,10.1,1.3,77,57,26,30.68,30.05,20,2,20,0.00
2014-3-11,40.5,27.0,11.8,23.4,14.9,4.7,88,63,28,30.29,29.87,39,9,39,0.82
2014-3-12,30.2,13.6,-2.2,13.9,3.6,-6.8,92,66,32,30.70,30.30,10,1,10,0.02
2014-3-13,37.9,19.9,2.3,25.5,10.1,-7.1,88,66,47,30.67,30.31,19,3,19,0.09
2014-3-14,36.3,22.7,7.8,23.1,15.7,3.0,89,75,46,30.34,30.20,13,2,13,0.00
2014-3-15,30.3,22.4,10.4,19.9,12.1,4.8,89,65,44,30.53,30.20,26,9,26,1.23
2014-3-16,40.1,25.0,9.9,19.1,9.6,0.9,72,53,32,30.64,30.35,27,6,27,0.08
2014-3-17,43.3,28.6,15.3,20.8,11.7,-2.8,77,52,22,30.37,29.54,42,8,42,1.71
2014-3-18,27.1,19.3,12.9,14.5,9.0,3.6,79,64,46,30.27,29.64,22,9,22,0.09
2014-3-19,30.2,16.4,1.8,17.1,6.8,-2.9,84,67,47,30.57,30.25,13,3,13,0.19
2014-3-20,39.2,20.7,4.1,20.8,7.4,-1.9,78,58,21,30.56,30.28,12,3,12,0.00
2014-3-21,40.6,25.8,11.7,21.0,11.8,2.2,75,56,27,30.29,30.11,23,4,23,0.13
2014-3-22,32.3,23.8,9.4,27.5,19.1,4.2,92,82,71,30.38,30.06,18,4,18,0.08
2014-3-23,37.7,18.3,-1.2,20.0,6.6,-4.7,88,64,29,30.60,30.37,24,4,24,0.00
2014-3-24,40.5,26.5,7.6,14.1,7.2,-0.4,77,46,27,30.48,30.31,22,6,22,0.00
2014-3-25,44.6,26.4,11.2,21.0,12.0,3.7,75,56,29,30.41,30.04,14,2,14,0.00
2014-3-26,35.9,26.8,16.3,29.9,21.6,8.7,94,81,60,30.04,29.57,20,3,24,0.03
2014-3-27,34.7,25.4,21.2,29.8,23.4,19.0,96,92,80,30.01,29.62,23,4,23,0.21
2014-3-28,31.3,22.5,10.5,21.7,16.3,4.9,100,78,44,30.51,30.00,22,6,22,0.05
2014-3-29,38.5,20.3,1.8,23.0,11.5,-2.5,88,70,44,30.68,30.39,14,2,14,0.00
2014-3-30,43.5,27.9,15.9,27.1,18.4,11.3,91,69,33,30.40,29.67,49,7,49,0.00
2014-3-31,33.2,26.6,17.5,20.3,13.8,3.6,89,60,31,30.08,29.89,33,7,33,0.01
2014-4-1,39.1,32.7,25.5,23.7,16.9,7.6,92,55,29,30.03,29.72,36,7,36,0.04
2014-4-2,34.9,28.7,22.0,23.8,17.3,8.1,89,65,33,29.78,29.67,34,4,34,0.00
2014-4-3,32.7,23.7,13.0,20.6,15.7,6.6,90,72,50,30.29,29.77,23,8,23,0.01
2014-4-4,33.2,18.5,0.2,22.7,10.6,-3.9,86,72,50,30.42,30.27,16,3,16,0.00
2014-4-5,39.1,26.7,14.8,22.0,16.3,10.9,87,67,36,30.29,29.94,22,3,22,0.00
2014-4-6,35.4,25.2,11.0,23.4,16.8,7.2,91,71,49,30.19,30.03,27,7,27,0.00
2014-4-7,37.7,29.6,22.1,23.8,20.3,14.4,92,70,39,30.39,30.18,24,10,24,0.06
2014-4-8,46.9,33.2,18.8,26.5,21.3,13.8,85,63,38,30.45,30.34,17,4,17,0.00
2014-4-9,51.9,33.9,17.8,26.9,19.2,13.2,85,59,24,30.41,30.14,23,3,23,0.00
2014-4-10,52.1,38.6,25.7,25.5,19.7,11.6,73,50,21,30.15,29.98,31,6,31,0.00
2014-4-11,53.8,36.5,20.0,26.8,20.1,12.4,82,55,19,30.17,29.98,22,3,22,0.00
2014-4-12,49.6,34.8,23.8,31.6,23.9,15.5,93,66,29,30.00,29.75,44,4,44,0.00
2014-4-13,37.4,30.2,18.6,33.0,26.7,12.7,95,87,56,29.97,29.60,31,7,31,0.19
2014-4-14,30.5,21.6,12.8,15.9,9.7,0.9,83,61,34,30.47,29.97,27,10,27,0.00
2014-4-15,43.6,25.6,7.4,19.0,10.9,3.3,86,57,25,30.48,30.04,17,2,17,0.00
2014-4-16,42.2,36.0,26.0,21.1,16.2,10.0,70,45,32,30.04,29.83,24,6,24,0.00
2014-4-17,47.0,31.1,16.8,24.8,18.1,11.1,79,60,31,30.24,29.98,14,3,15,0.00
2014-4-18,53.7,37.7,22.5,30.1,23.3,17.0,82,59,32,30.27,30.02,25,3,25,0.00
2014-4-19,48.7,39.8,33.0,34.8,31.6,28.3,87,73,53,30.04,29.91,23,4,23,0.01
2014-4-20,54.4,40.0,26.9,33.8,30.1,24.3,93,71,39,30.17,30.03,28,5,28,0.00
2014-4-21,54.3,39.2,26.8,33.3,27.7,22.7,91,67,32,30.26,30.14,31,4,31,0.00
2014-4-22,51.6,39.6,26.1,37.0,29.7,21.8,88,69,42,30.17,29.72,32,4,32,0.00
2014-4-23,48.1,40.3,30.6,32.0,22.0,11.9,77,49,24,29.86,29.60,31,8,31,0.01
2014-4-24,48.7,34.9,20.3,21.2,14.1,4.1,75,45,20,30.13,29.85,19,4,19,0.00
2014-4-25,58.1,40.6,23.0,25.4,17.9,7.3,82,46,15,30.07,29.68,28,3,28,0.00
2014-4-26,50.8,38.4,27.4,29.1,24.6,18.6,95,62,31,29.68,29.26,42,8,42,0.00
2014-4-27,35.0,28.6,25.3,26.8,24.1,21.5,94,84,60,29.85,29.38,26,10,26,0.05
2014-4-28,30.5,24.1,20.4,23.8,19.4,12.6,92,82,65,30.26,29.83,27,9,27,0.02
2014-4-29,34.9,26.2,20.4,23.1,17.2,13.4,89,69,47,30.43,30.26,31,9,31,0.00
2014-4-30,38.4,29.1,21.6,21.8,17.1,10.9,89,63,38,30.43,30.33,25,8,25,0.00
2014-5-1,45.2,31.2,16.3,19.5,14.1,5.0,82,53,28,30.42,30.28,31,7,31,0.00
2014-5-2,55.9,39.5,22.1,29.5,21.8,16.7,83,53,27,30.30,30.08,23,5,23,0.00
2014-5-3,63.9,44.5,26.6,32.6,22.5,13.5,85,50,15,30.13,29.94,26,4,26,0.00
2014-5-4,62.2,46.5,29.6,27.9,19.0,5.3,81,42,12,29.99,29.85,39,6,39,0.00
2014-5-5,61.2,45.1,28.2,25.7,16.6,3.7,79,40,12,29.94,29.75,26,5,26,0.00
2014-5-6,58.7,44.4,31.4,26.5,19.2,7.6,74,42,16,29.75,29.49,25,5,25,0.00
2014-5-7,52.6,40.0,28.4,25.9,15.8,0.2,74,42,13,29.72,29.52,48,9,48,0.00
2014-5-8,40.2,32.0,26.7,31.5,25.5,17.3,92,78,46,30.08,29.71,27,4,27,0.04
2014-5-9,41.2,33.7,26.2,34.5,29.2,25.0,96,84,60,30.09,29.96,29,3,29,0.04
2014-5-10,47.9,38.7,30.8,39.6,32.1,27.6,97,79,49,30.01,29.60,27,3,27,0.06
2014-5-11,40.8,34.0,27.6,35.7,31.4,26.1,96,90,79,29.83,29.46,32,4,32,0.31
2014-5-12,40.9,28.7,23.4,31.2,25.2,21.9,95,87,59,30.31,29.83,14,2,14,0.28
2014-5-13,38.1,27.8,16.0,22.3,16.5,10.2,92,64,34,30.62,30.31,20,5,20,0.03
2014-5-14,42.8,30.2,16.6,25.9,19.1,12.5,92,65,37,30.64,30.46,24,5,24,0.00
2014-5-15,50.4,38.9,27.6,32.0,27.0,21.8,86,64,41,30.47,30.21,28,7,28,0.00
2014-5-16,55.7,41.5,28.5,37.8,30.0,21.6,92,68,29,30.22,30.02,30,5,30,0.09
2014-5-17,63.1,46.8,31.7,42.5,28.6,15.3,97,58,16,30.06,29.85,30,5,30,0.00
2014-5-18,65.0,48.5,31.7,32.7,24.8,11.6,84,46,15,29.89,29.68,36,6,36,0.00
2014-5-19,64.5,52.0,37.4,26.0,16.9,8.4,52,27,12,29.72,29.63,34,7,34,0.00
2014-5-20,64.3,50.1,32.8,26.6,18.5,9.1,60,32,12,29.84,29.72,31,6,31,0.00
2014-5-21,65.2,46.9,32.8,31.6,26.5,19.9,79,49,20,29.99,29.82,33,6,33,0.00
2014-5-22,62.7,47.4,32.8,39.2,32.3,26.3,86,59,27,30.04,29.91,31,4,31,0.00
2014-5-23,60.7,45.1,37.3,40.6,35.8,30.0,93,72,33,30.01,29.83,27,5,27,0.10
2014-5-24,59.6,43.8,34.3,41.2,35.0,28.1,100,74,31,29.99,29.84,26,4,26,0.07
2014-5-25,50.2,38.9,32.6,38.7,34.9,31.0,96,86,54,30.08,29.81,26,4,26,0.30
2014-5-26,59.7,45.1,28.7,38.9,33.2,26.4,94,67,35,30.18,30.02,27,6,27,0.01
2014-5-27,66.3,49.1,32.7,43.2,34.8,30.0,94,62,30,30.12,30.02,31,4,31,0.00
2014-5-28,72.5,52.5,33.5,39.1,32.2,21.3,85,53,15,30.13,29.89,20,2,20,0.00
2014-5-29,66.2,50.8,40.2,45.9,39.0,33.4,93,68,33,29.97,29.85,24,3,24,0.11
2014-5-30,60.6,48.4,41.7,46.8,41.6,37.1,96,79,45,30.01,29.92,19,3,19,0.05
2014-5-31,65.1,51.3,35.5,46.3,36.3,23.0,94,61,21,30.06,29.82,37,4,37,0.00
2014-6-1,65.7,54.6,38.5,40.6,27.7,14.4,78,41,14,29.86,29.72,28,6,28,0.00
2014-6-2,70.1,51.0,30.6,35.9,25.8,12.4,78,45,13,30.01,29.85,22,4,22,0.00
2014-6-3,69.2,53.3,36.6,37.3,26.0,14.6,79,41,13,29.90,29.75,37,6,37,0.00
2014-6-4,70.0,51.6,29.8,27.6,21.5,7.5,76,37,11,29.90,29.77,25,5,25,0.00
2014-6-5,69.2,51.6,30.4,33.1,22.4,6.2,74,39,10,29.90,29.75,27,4,27,0.00
2014-6-6,68.3,51.5,33.0,37.6,27.5,13.9,77,45,16,29.86,29.74,24,5,24,0.00
2014-6-7,68.9,52.1,35.6,39.2,29.1,16.7,76,46,14,29.86,29.75,28,5,28,0.00
2014-6-8,60.4,42.6,33.0,40.7,33.3,28.6,91,71,36,30.03,29.70,30,6,30,0.19
2014-6-9,60.4,44.6,27.9,37.6,28.8,17.1,91,60,24,30.15,30.01,22,6,22,0.00
2014-6-10,66.3,49.3,30.1,37.7,31.7,24.7,91,57,22,30.06,29.86,35,5,35,0.00
2014-6-11,64.2,50.9,38.7,41.5,35.8,32.3,88,59,34,29.91,29.75,37,6,37,0.02
2014-6-12,67.0,49.9,32.9,43.5,34.4,24.3,95,61,23,29.99,29.87,31,5,31,0.00
2014-6-13,68.6,53.0,32.7,40.7,29.9,21.4,92,49,18,29.93,29.62,31,6,31,0.00
2014-6-14,61.5,47.5,33.8,38.0,27.5,15.0,77,49,17,29.80,29.51,33,6,33,0.02
2014-6-15,64.5,46.2,26.0,31.6,22.5,11.3,84,47,14,29.95,29.80,29,5,29,0.00
2014-6-16,65.8,51.4,33.1,34.4,21.4,10.4,72,36,14,29.81,29.69,32,6,32,0.00
2014-6-17,69.3,58.1,37.7,30.8,23.9,11.7,55,28,18,29.73,29.52,34,8,34,0.00
2014-6-18,61.6,51.9,35.0,34.9,28.4,22.5,83,42,25,29.82,29.57,33,8,33,0.00
2014-6-19,63.9,49.3,28.2,36.0,27.7,20.1,91,50,20,30.17,29.82,24,5,24,0.00
2014-6-20,69.6,50.6,28.6,34.8,27.0,21.8,81,46,18,30.17,29.96,23,4,23,0.00
2014-6-21,68.8,52.7,38.4,39.3,32.4,23.6,83,50,21,29.97,29.78,29,3,29,0.00
2014-6-22,66.9,50.9,35.7,42.2,34.0,27.2,82,56,25,29.94,29.83,38,5,38,0.03
2014-6-23,69.1,50.3,33.5,42.8,35.4,28.2,92,61,22,29.99,29.88,29,4,35,0.00
2014-6-24,72.3,53.2,34.1,46.4,33.5,22.1,92,54,17,30.03,29.86,24,5,24,0.00
2014-6-25,73.8,55.7,36.2,44.4,31.0,23.3,83,46,16,29.93,29.75,22,4,22,0.00
2014-6-26,74.8,56.4,34.0,41.1,28.5,18.0,81,40,16,29.83,29.60,30,4,30,0.00
2014-6-27,62.9,53.6,44.5,38.6,32.1,21.9,68,45,25,29.66,29.52,31,7,31,0.00
2014-6-28,66.5,52.1,37.7,40.4,32.4,22.1,88,52,20,29.93,29.66,21,6,21,0.00
2014-6-29,75.2,55.7,34.0,40.0,31.4,25.4,82,46,17,30.00,29.84,32,4,32,0.00
2014-6-30,76.2,58.1,39.5,44.3,33.6,20.9,79,45,14,29.87,29.75,28,5,28,0.00
2014-7-1,73.8,56.3,37.9,46.8,31.4,19.3,77,44,14,29.94,29.78,23,5,23,0.00
2014-7-2,75.1,56.4,36.0,45.5,33.2,24.8,84,47,17,29.99,29.86,21,5,21,0.00
2014-7-3,75.5,57.7,37.7,44.8,36.0,29.4,87,50,20,30.02,29.86,20,5,20,0.00
2014-7-4,75.3,58.7,45.3,48.2,41.5,37.8,84,57,27,30.00,29.83,33,5,33,0.00
2014-7-5,75.5,56.8,39.8,49.6,40.8,27.8,95,61,19,30.06,29.95,21,4,21,0.00
2014-7-6,74.7,56.2,38.6,49.5,42.3,34.5,92,63,27,30.08,29.92,32,4,32,0.10
2014-7-7,78.0,59.1,44.3,50.0,42.5,34.4,86,59,23,29.98,29.80,25,6,25,0.00
2014-7-8,78.7,58.0,38.7,47.5,41.1,29.9,93,61,20,29.98,29.81,20,5,21,0.04
2014-7-9,74.5,55.9,40.6,52.4,44.7,38.1,95,70,29,29.99,29.79,28,4,28,0.03
2014-7-10,75.2,55.9,42.0,52.8,45.5,37.4,94,73,29,29.93,29.75,40,4,40,0.06
2014-7-11,71.5,56.3,46.7,56.6,49.0,44.7,96,78,42,30.00,29.84,27,3,27,0.21
2014-7-12,76.2,57.8,44.3,55.4,47.9,42.0,97,74,30,30.04,29.91,24,4,24,0.02
2014-7-13,77.5,58.6,41.3,56.2,46.9,40.0,100,70,28,30.07,29.89,26,4,26,0.04
2014-7-14,75.0,59.5,44.3,54.1,45.4,39.3,92,64,29,30.03,29.85,20,4,20,0.00
2014-7-15,72.3,57.2,46.1,52.5,46.2,41.1,92,69,38,29.95,29.75,24,4,24,0.00
2014-7-16,70.5,55.7,43.8,50.9,45.2,39.1,96,71,37,29.90,29.70,34,4,34,0.19
2014-7-17,70.8,55.3,41.4,51.4,43.2,39.5,97,69,34,29.86,29.78,22,5,22,0.01
2014-7-18,74.2,55.5,37.7,47.7,40.1,34.9,92,61,27,29.95,29.83,28,5,28,0.00
2014-7-19,75.8,58.3,40.4,46.7,39.5,33.0,89,56,22,29.95,29.82,24,4,24,0.00
2014-7-20,78.0,56.0,40.4,50.1,42.2,33.5,90,65,22,29.99,29.83,26,3,26,0.02
2014-7-21,76.7,57.6,39.7,50.9,40.3,31.2,97,61,19,30.06,29.97,18,4,18,0.00
2014-7-22,84.3,60.3,38.4,46.3,35.6,20.0,81,48,12,30.15,29.97,16,3,16,0.00
2014-7-23,81.7,61.3,44.3,49.8,42.9,31.7,86,56,20,30.11,29.89,34,4,34,0.00
2014-7-24,76.0,61.2,50.0,50.6,47.0,44.9,87,63,34,30.00,29.82,18,4,18,0.00
2014-7-25,74.3,64.4,48.9,53.8,48.6,43.1,93,59,35,29.95,29.83,19,4,19,0.02
2014-7-26,75.3,59.4,42.5,54.4,46.1,40.7,97,66,31,30.01,29.90,22,4,22,0.01
2014-7-27,76.8,57.0,42.4,51.1,45.4,39.3,93,70,29,30.09,29.91,31,4,31,0.07
2014-7-28,69.8,54.9,48.4,55.2,49.8,46.5,96,85,49,30.12,30.01,22,2,22,0.40
2014-7-29,64.5,54.5,49.1,53.5,49.7,45.1,97,85,58,30.10,29.92,21,3,21,0.23
2014-7-30,65.7,54.9,45.5,52.0,47.6,43.6,97,78,47,30.01,29.90,20,3,20,0.01
2014-7-31,68.9,56.8,44.7,52.5,46.7,41.9,97,72,39,29.98,29.85,18,3,18,0.07
2014-8-1,64.7,52.4,45.4,52.2,47.3,42.6,96,84,53,30.07,29.94,19,3,19,0.16
2014-8-2,75.2,54.8,36.9,48.7,42.2,35.4,97,68,27,30.17,29.94,15,3,15,0.01
2014-8-3,72.3,55.3,41.1,51.8,45.4,39.1,97,72,36,30.07,29.89,18,3,18,0.05
2014-8-4,67.0,54.3,44.4,53.1,48.0,42.8,96,81,48,30.00,29.89,16,3,16,0.06
2014-8-5,64.8,50.1,43.6,51.9,45.6,41.8,96,86,49,30.07,29.94,17,3,17,0.05
2014-8-6,71.9,54.4,38.8,51.2,41.1,32.4,98,67,24,30.07,29.90,20,3,20,0.00
2014-8-7,72.8,56.1,41.9,46.0,38.0,29.3,90,57,22,29.96,29.80,28,4,28,0.00
2014-8-8,71.5,54.1,36.6,44.7,33.0,17.1,91,54,14,29.97,29.89,25,5,25,0.00
2014-8-9,70.1,53.9,36.4,42.8,35.6,31.2,88,55,24,30.07,29.96,28,4,28,0.00
2014-8-10,73.7,52.5,36.7,49.7,39.4,33.3,91,65,28,30.17,30.01,25,3,25,0.02
2014-8-11,75.3,55.5,36.6,47.0,39.6,33.7,96,61,25,30.21,30.02,24,3,24,0.00
2014-8-12,75.9,53.7,38.4,49.2,42.1,35.7,95,69,27,30.14,29.97,21,4,21,0.12
2014-8-13,73.7,57.3,42.8,49.6,44.7,40.6,96,67,33,30.09,29.86,29,4,29,0.00
2014-8-14,68.7,56.5,46.7,51.3,48.1,43.1,91,75,47,29.94,29.79,21,4,21,0.00
2014-8-15,75.2,55.0,39.3,51.7,42.3,36.3,97,68,28,30.06,29.92,24,4,24,0.00
2014-8-16,77.0,56.9,38.1,47.4,39.9,32.7,95,60,23,30.08,29.93,24,5,24,0.00
2014-8-17,77.6,55.7,38.4,44.2,35.7,26.4,89,54,19,30.06,29.92,18,4,18,0.00
2014-8-18,76.0,55.5,36.3,43.0,35.6,29.8,87,53,19,30.03,29.80,22,3,22,0.00
2014-8-19,70.7,54.1,44.8,51.4,44.8,35.9,95,72,37,29.89,29.67,27,4,27,0.18
2014-8-20,67.0,55.0,44.9,52.3,45.4,39.3,96,73,40,29.86,29.72,17,3,17,0.07
2014-8-21,68.8,53.0,36.6,46.8,37.6,30.1,97,62,27,30.01,29.86,20,3,20,0.00
2014-8-22,56.7,50.4,45.7,48.9,45.0,38.0,95,82,66,29.97,29.79,29,3,29,0.18
2014-8-23,53.6,46.9,44.2,47.8,44.3,42.1,97,91,74,30.00,29.84,14,2,14,0.26
2014-8-24,66.0,51.5,40.3,45.0,40.6,34.2,95,71,36,30.04,29.88,22,3,22,0.08
2014-8-25,68.3,51.7,38.9,51.2,42.8,36.8,96,75,36,30.00,29.87,20,3,20,0.11
2014-8-26,66.5,50.6,39.6,49.4,43.6,38.0,100,80,42,30.07,29.97,22,4,22,0.03
2014-8-27,58.1,47.9,42.6,48.3,42.6,38.3,97,83,50,30.09,29.98,26,4,26,0.31
2014-8-28,58.9,47.6,40.7,45.8,41.6,37.4,96,81,51,30.08,30.03,18,4,18,0.07
2014-8-29,67.4,49.5,32.7,45.8,38.5,30.9,97,71,28,30.15,29.96,18,4,18,0.01
2014-8-30,68.1,49.2,34.7,48.9,39.8,32.9,96,73,34,30.07,29.87,39,3,39,0.07
2014-8-31,66.0,50.8,38.5,44.4,37.0,30.8,100,65,28,29.90,29.78,26,4,26,0.00
2014-9-1,67.5,50.9,33.9,41.8,33.9,29.5,92,58,25,30.00,29.86,33,4,33,0.00
2014-9-2,72.7,54.7,33.6,41.6,34.6,29.8,92,53,22,30.06,29.85,25,5,27,0.00
2014-9-3,74.0,54.6,35.0,43.6,34.8,29.7,93,54,21,29.91,29.72,28,4,30,0.00
2014-9-4,61.2,47.0,34.7,44.4,37.5,30.2,94,72,41,30.05,29.80,21,3,21,0.18
2014-9-5,67.6,51.8,38.1,48.8,41.2,34.9,97,72,33,30.09,29.98,23,4,25,0.08
2014-9-6,69.3,52.9,40.5,46.1,38.5,30.9,94,64,25,30.13,29.99,21,4,21,0.00
2014-9-7,66.3,50.5,34.1,45.5,38.5,32.2,96,67,36,30.09,29.94,24,4,24,0.00
2014-9-8,61.6,50.4,42.5,49.9,44.6,38.5,95,81,55,30.02,29.86,16,2,16,0.07
2014-9-9,54.2,49.0,39.4,50.6,46.6,37.4,97,91,74,29.86,29.73,14,4,14,0.64
2014-9-10,58.8,47.0,37.7,43.5,37.8,32.4,100,74,40,30.06,29.86,14,4,18,0.16
2014-9-11,63.6,46.9,31.1,42.7,32.8,25.1,97,65,24,30.14,30.00,22,4,24,0.00
2014-9-12,61.1,45.2,29.5,38.3,30.3,21.6,95,62,27,30.14,30.05,22,4,26,0.00
2014-9-13,64.0,45.4,27.2,37.5,30.6,24.9,95,62,25,30.21,30.08,18,4,20,0.00
2014-9-14,67.4,48.6,30.7,38.7,33.5,27.6,94,61,25,30.18,30.01,20,3,21,0.00
2014-9-15,70.4,50.6,32.8,42.1,35.1,30.2,94,61,27,30.17,30.03,20,4,20,0.00
2014-9-16,70.2,51.5,34.4,43.0,36.1,32.0,95,61,27,30.17,29.95,18,3,19,0.00
2014-9-17,73.6,51.8,36.4,44.1,36.7,31.8,91,62,23,30.02,29.82,20,3,20,0.00
2014-9-18,75.0,54.1,35.1,42.7,35.4,27.2,94,57,18,29.97,29.74,16,3,16,0.00
2014-9-19,73.5,54.3,36.2,44.2,37.3,32.3,91,59,24,29.91,29.78,24,4,24,0.00
2014-9-20,75.8,55.4,37.5,46.2,39.3,32.3,95,61,24,30.02,29.87,20,3,20,0.00
2014-9-21,64.0,51.3,46.8,49.7,45.8,40.4,96,82,53,30.08,29.96,11,2,11,0.83
2014-9-22,61.4,51.3,44.7,50.7,46.5,41.5,100,85,49,30.07,29.94,28,3,28,0.33
2014-9-23,61.2,49.4,41.4,49.2,42.3,38.1,96,79,49,30.14,30.00,16,4,16,0.06
2014-9-24,72.8,51.3,33.7,45.6,39.0,32.0,97,69,27,30.23,30.03,13,3,14,0.01
2014-9-25,72.3,53.5,36.6,44.8,38.6,34.0,93,62,28,30.14,29.92,22,4,22,0.00
2014-9-26,73.0,53.9,37.3,45.5,38.1,34.0,92,60,28,30.00,29.80,34,4,34,0.00
2014-9-27,71.0,53.4,36.3,43.8,37.7,33.1,94,60,28,29.88,29.64,19,4,24,0.00
2014-9-28,53.2,48.1,42.9,45.9,42.1,39.2,91,80,65,29.84,29.68,25,4,27,0.20
2014-9-29,49.9,38.7,32.3,44.3,35.7,30.6,96,89,64,29.98,29.79,24,4,27,0.44
2014-9-30,43.4,36.8,32.8,36.9,33.6,31.4,100,89,63,29.99,29.94,13,2,14,0.20
2014-10-1,46.3,34.6,29.0,38.6,32.1,27.6,97,91,62,30.10,29.90,19,3,21,0.13
2014-10-2,45.9,33.8,23.6,29.9,25.2,18.9,89,72,39,30.37,30.09,26,6,26,0.01
2014-10-3,53.1,37.9,23.8,32.2,24.2,14.0,93,64,26,30.46,30.35,24,5,24,0.01
2014-10-4,59.1,39.8,24.0,32.2,26.8,21.0,92,65,27,30.36,30.12,25,6,26,0.00
2014-10-5,58.4,40.7,25.0,34.4,27.5,22.2,94,64,28,30.18,30.06,28,7,28,0.00
2014-10-6,60.4,42.3,25.3,35.4,28.1,22.5,94,63,27,30.17,30.03,25,6,27,0.00
2014-10-7,63.4,43.5,26.1,34.4,29.0,23.1,92,62,23,30.18,30.03,19,4,19,0.00
2014-10-8,64.5,46.8,33.8,36.2,31.3,25.6,89,60,26,30.10,29.88,16,3,16,0.00
2014-10-9,46.9,42.6,39.7,41.5,37.7,32.3,93,83,66,29.95,29.80,13,1,13,0.20
2014-10-10,50.8,42.2,37.1,40.3,36.9,34.8,94,82,59,30.09,29.95,18,2,18,0.04
2014-10-11,50.7,39.3,30.5,43.2,33.4,28.9,97,81,48,30.18,29.95,24,3,24,0.00
2014-10-12,43.1,35.1,29.7,33.7,29.7,22.3,95,81,65,30.13,29.65,26,7,26,0.19
2014-10-13,44.4,32.8,22.8,27.6,23.0,18.1,94,70,37,30.37,30.13,23,6,23,0.03
2014-10-14,64.1,37.8,20.4,30.9,23.5,13.4,93,63,17,30.48,30.25,12,3,12,0.00
2014-10-15,64.7,40.6,24.3,31.2,24.8,20.0,87,59,19,30.30,30.05,19,3,19,0.00
2014-10-16,61.6,42.9,27.6,34.1,24.8,17.7,86,55,20,30.13,29.97,23,4,23,0.00
2014-10-17,63.2,42.5,26.6,31.9,25.1,19.6,92,56,20,30.13,29.99,16,3,16,0.00
2014-10-18,58.4,42.4,27.6,33.3,27.8,23.0,88,59,32,30.13,30.00,16,3,16,0.00
2014-10-19,57.6,44.7,35.2,36.5,34.0,31.0,87,68,41,30.08,29.95,13,2,13,0.00
2014-10-20,61.2,42.7,28.4,38.9,31.9,26.4,95,70,32,30.18,30.02,17,3,17,0.00
2014-10-21,55.2,40.0,32.6,40.0,34.8,30.0,95,83,50,30.08,29.90,17,3,17,0.09
2014-10-22,48.2,38.7,31.8,41.5,35.0,28.6,97,87,53,30.22,30.02,14,2,14,0.23
2014-10-23,59.2,39.0,25.8,36.8,29.3,23.8,94,72,33,30.35,30.21,16,3,16,0.01
2014-10-24,63.6,43.2,26.4,32.2,24.0,17.1,89,54,17,30.35,30.26,16,4,16,0.01
2014-10-25,65.3,42.4,24.4,29.9,23.9,17.1,80,54,17,30.36,30.10,17,3,17,0.00
2014-10-26,58.2,46.8,34.6,34.7,29.4,21.8,85,54,27,30.10,29.68,28,7,28,0.01
2014-10-27,48.4,38.2,26.6,34.8,24.2,10.5,82,59,34,30.06,29.64,33,7,33,0.06
2014-10-28,50.9,33.7,23.3,19.2,10.1,-12.5,78,45,8,30.37,30.03,19,5,19,0.00
2014-10-29,53.8,34.4,18.5,19.7,14.0,8.3,76,47,21,30.45,30.32,19,4,19,0.00
2014-10-30,59.8,37.7,22.4,25.4,20.4,15.4,82,55,21,30.44,30.28,18,3,18,0.00
2014-10-31,61.7,38.4,23.3,27.3,21.7,18.0,86,56,20,30.35,30.10,15,3,15,0.00
2014-11-1,59.1,41.2,27.2,35.1,26.6,17.0,87,61,20,30.15,29.83,27,4,27,0.00
2014-11-2,42.8,34.7,29.7,35.6,31.5,28.5,100,88,70,29.87,29.75,19,3,19,0.15
2014-11-3,34.6,26.7,17.6,28.5,22.5,14.4,100,84,62,30.39,29.81,34,4,34,0.11
2014-11-4,41.2,24.7,11.3,24.8,16.7,8.2,92,73,34,30.60,30.39,20,4,20,0.03
2014-11-5,53.2,29.6,14.1,28.6,18.8,10.0,89,67,28,30.65,30.49,18,3,18,0.00
2014-11-6,58.9,35.3,19.9,26.5,20.4,16.2,87,60,21,30.67,30.41,15,2,15,0.00
2014-11-7,52.7,35.1,20.6,26.1,21.2,15.4,85,61,28,30.41,30.21,19,5,24,0.00
2014-11-8,54.7,35.3,20.3,27.0,13.8,-12.6,89,52,6,30.48,30.31,20,4,20,0.00
2014-11-9,53.8,34.1,20.5,23.7,16.9,14.1,82,54,22,30.31,29.84,14,3,15,0.00
2014-11-10,47.7,31.3,21.1,29.4,18.9,12.6,90,62,30,29.90,29.56,37,7,37,0.00
2014-11-11,40.4,28.9,11.5,20.9,13.8,7.2,86,56,31,30.00,29.90,44,6,44,0.00
2014-11-12,38.1,29.4,20.3,26.0,21.3,14.9,91,73,52,30.06,29.79,27,8,27,0.00
2014-11-13,28.3,24.6,17.3,26.5,20.5,9.5,94,84,64,30.22,30.06,12,2,14,0.01
2014-11-14,32.4,27.5,23.0,28.0,25.4,20.8,95,92,82,30.14,29.91,18,2,18,0.09
2014-11-15,28.5,25.4,17.7,25.6,22.1,15.5,94,87,64,29.97,29.87,31,9,31,0.00
2014-11-16,20.6,9.8,-3.0,15.5,1.9,-7.0,92,71,39,30.68,29.92,23,6,23,0.02
2014-11-17,22.1,4.4,-10.8,6.9,-3.8,-14.9,100,70,43,30.88,30.68,14,2,14,0.06
2014-11-18,24.3,8.5,-8.6,8.4,-0.5,-12.1,89,68,44,30.92,30.80,12,2,12,0.04
2014-11-19,33.2,13.5,-0.3,11.5,4.1,-3.9,88,68,38,30.81,30.52,11,2,11,0.03
2014-11-20,36.7,16.7,2.9,13.4,7.0,-2.0,85,67,35,30.58,30.39,12,2,12,0.00
2014-11-21,37.4,19.5,8.4,18.9,11.6,4.0,86,72,45,30.42,30.28,12,2,12,0.00
2014-11-22,30.2,18.7,2.5,25.1,13.6,-0.8,95,81,54,30.46,29.98,13,2,13,0.00
2014-11-23,26.2,19.9,10.8,24.9,12.9,3.6,95,75,51,30.24,29.88,24,9,24,0.01
2014-11-24,18.4,11.5,5.0,13.3,7.5,1.7,97,84,74,30.73,30.24,18,4,18,0.00
2014-11-25,20.4,11.9,-0.9,18.6,9.0,-4.9,93,88,78,30.79,30.70,11,1,11,0.00
2014-11-26,37.3,28.5,18.1,26.0,22.1,13.8,100,78,59,30.71,30.50,24,7,24,0.12
2014-11-27,38.2,21.6,9.0,21.8,15.3,6.4,92,78,50,30.73,30.58,11,1,11,0.11
2014-11-28,39.7,23.5,12.5,21.5,14.7,8.4,90,71,42,30.60,30.24,12,1,12,0.01
2014-11-29,46.6,26.2,9.4,13.4,8.1,3.0,92,51,20,30.25,30.07,32,4,32,0.00
2014-11-30,40.3,31.5,21.9,24.1,11.7,6.5,82,45,27,30.18,30.00,20,4,20,0.00
2014-12-1,40.6,27.5,11.7,30.0,22.2,7.1,95,81,53,30.40,30.15,14,2,14,0.17
2014-12-2,34.7,18.2,5.7,18.2,11.8,2.4,91,77,50,30.53,30.40,11,1,11,0.00
2014-12-3,34.3,25.8,15.7,26.8,20.8,10.6,88,81,70,30.48,30.28,9,2,9,0.03
2014-12-4,38.7,30.6,26.7,31.2,27.4,24.0,94,88,72,30.30,30.04,9,2,9,0.01
2014-12-5,40.3,26.0,16.1,27.3,20.8,11.8,92,81,57,30.56,30.13,11,2,11,0.00
2014-12-6,44.2,24.7,14.7,24.3,17.9,10.6,91,76,44,30.66,30.53,11,2,11,0.00
2014-12-7,41.0,27.3,15.2,26.0,19.9,10.4,88,75,48,30.58,30.45,13,3,13,0.00
2014-12-8,37.1,18.6,7.0,18.6,10.5,1.7,91,72,45,30.77,30.58,13,2,13,0.00
2014-12-9,37.7,18.0,5.0,9.2,3.2,-3.2,74,54,22,30.76,30.59,12,1,12,0.00
2014-12-10,35.2,18.3,5.1,10.1,4.2,-3.5,74,56,27,30.67,30.52,12,1,12,0.00
2014-12-11,37.7,19.5,6.4,15.3,8.5,1.2,88,65,32,30.62,30.49,11,1,11,0.00
2014-12-12,38.2,23.9,11.8,22.9,17.4,8.2,92,77,50,30.58,30.33,12,1,16,0.00
2014-12-13,46.0,28.2,16.9,30.5,20.4,11.2,94,75,39,30.33,29.84,18,3,18,0.00
2014-12-14,28.2,24.5,20.0,24.4,18.4,13.1,94,78,66,30.09,29.78,25,7,25,0.03
2014-12-15,26.4,16.6,2.9,16.3,9.3,-1.6,94,73,52,30.56,30.09,19,5,19,0.00
2014-12-16,34.9,17.5,1.8,25.9,12.9,-2.1,100,82,57,30.64,30.36,11,1,11,0.05
2014-12-17,33.1,20.9,15.2,23.0,17.7,12.7,98,88,65,30.36,30.08,5,1,5,0.02
2014-12-18,29.3,17.9,4.4,23.5,14.3,0.6,92,86,71,30.42,30.20,13,1,13,0.06
2014-12-19,26.7,12.3,2.6,16.1,6.9,-0.9,99,80,53,30.60,30.41,19,3,19,0.01
2014-12-20,22.4,12.9,1.0,18.5,9.7,-3.7,100,87,73,30.61,30.42,9,0,9,0.00
2014-12-21,29.0,23.3,17.1,27.2,21.4,14.9,100,92,90,30.43,29.90,27,4,27,0.00
2014-12-22,29.4,22.8,14.2,26.8,18.5,8.4,94,83,61,30.02,29.75,33,11,33,0.00
2014-12-23,18.0,11.8,-2.7,11.0,3.2,-8.1,88,68,51,30.58,30.02,41,11,41,0.00
2014-12-24,20.5,3.0,-11.0,4.5,-4.2,-15.5,87,73,43,30.72,30.25,10,1,10,0.04
2014-12-25,26.5,16.7,8.1,21.5,13.8,3.1,100,88,80,30.25,29.82,10,1,12,0.04
2014-12-26,30.9,10.8,0.9,15.5,6.6,-2.9,100,83,44,30.34,29.84,10,3,10,0.01
2014-12-27,19.2,-1.7,-11.7,3.8,-6.8,-16.1,86,79,47,30.85,30.34,10,2,10,0.00
2014-12-28,10.7,1.0,-11.3,6.0,-2.6,-15.7,92,84,76,30.85,30.51,6,1,6,0.00
2014-12-29,20.0,10.2,6.3,15.1,7.0,3.1,89,86,73,30.52,30.23,13,1,13,0.00
2014-12-30,23.5,8.6,2.0,13.1,4.5,-1.6,98,83,57,30.55,30.34,9,2,10,0.00
2014-12-31,26.9,5.8,-9.0,13.4,0.4,-13.0,95,79,44,30.68,30.47,13,2,13,0.00
2015-1-1,20.3,7.1,-2.7,18.5,4.0,-6.5,96,87,82,30.50,30.23,25,2,25,0.00
2015-1-2,25.9,2.4,-7.6,12.1,-2.6,-11.4,87,80,51,30.61,30.43,10,1,10,0.00